Time;durP1;ratioP1;P1;durP2;ratioP2;P2;SDS_P1;SDS_P2;PMS_P1;PMS_P2;Temp;Humidity;BMP_temperature;BMP_pressure;BME280_temperature;BME280_humidity;BME280_pressure;Samples;Min_cycle;Max_cycle;Signal;HPM_P1;HPM_P2
2020/12/10 13:49:24;;;;;;;348.27;329.33;;;;;;;;;;5094267;27;20643;-69
2020/12/10 13:51:51;;;;;;;225.53;215.50;;;;;;;;;;5069761;28;20190;-68
2020/12/10 13:54:18;;;;;;;305.83;290.00;;;;;;;;;;5068676;28;20178;-68
2020/12/10 13:56:47;;;;;;;224.80;214.27;;;;;;;;;;5076534;28;20178;-70
2020/12/10 13:59:14;;;;;;;305.20;290.40;;;;;;;;;;5070407;28;20190;-68
2020/12/10 14:01:53;;;;;;;349.70;331.33;;;;;;;;;;5071762;28;20174;-69
2020/12/10 14:04:20;;;;;;;256.63;244.67;;;;;;;;;;5055817;28;20182;-70
2020/12/10 14:06:53;;;;;;;232.03;220.73;;;;;;;;;;5075773;28;20193;-69
2020/12/10 14:09:20;;;;;;;279.27;264.77;;;;;;;;;;5071627;28;20191;-70
2020/12/10 14:11:46;;;;;;;178.53;170.30;;;;;;;;;;5076608;28;20235;-70
2020/12/10 14:14:13;;;;;;;232.63;220.10;;;;;;;;;;5076630;28;20248;-70
2020/12/10 14:16:45;;;;;;;186.37;177.60;;;;;;;;;;5074948;28;20261;-70
2020/12/10 14:19:12;;;;;;;221.50;210.10;;;;;;;;;;5064362;28;20194;-69
2020/12/10 14:21:38;;;;;;;233.30;221.33;;;;;;;;;;5076060;28;20174;-70
2020/12/10 14:24:05;;;;;;;160.83;153.83;;;;;;;;;;5074993;28;20255;-74
2020/12/10 14:26:32;;;;;;;251.00;238.57;;;;;;;;;;5068770;28;20573;-71
2020/12/10 14:28:59;;;;;;;190.10;180.57;;;;;;;;;;5070781;28;20210;-69
2020/12/10 14:31:25;;;;;;;202.23;193.03;;;;;;;;;;5074380;28;20205;-70
2020/12/10 14:33:52;;;;;;;298.17;283.43;;;;;;;;;;5066735;28;20175;-70
2020/12/10 14:36:31;;;;;;;173.63;165.70;;;;;;;;;;5071522;28;20520;-71
2020/12/10 14:38:58;;;;;;;273.00;259.23;;;;;;;;;;5073243;28;20186;-71
2020/12/10 14:41:24;;;;;;;239.50;227.43;;;;;;;;;;5074625;28;20197;-68
2020/12/10 14:43:51;;;;;;;189.17;178.40;;;;;;;;;;5075418;28;20185;-71
2020/12/10 14:46:42;;;;;;;175.97;166.60;;;;;;;;;;5073624;28;20189;-70
2020/12/10 14:49:09;;;;;;;161.10;152.57;;;;;;;;;;5072214;28;20328;-71
2020/12/10 14:51:36;;;;;;;191.83;181.83;;;;;;;;;;5078384;28;20620;-68
2020/12/10 14:54:24;;;;;;;104.17;98.90;;;;;;;;;;5072732;28;20857;-68
2020/12/10 14:56:50;;;;;;;215.73;203.17;;;;;;;;;;5068376;28;20672;-69
2020/12/10 14:59:17;;;;;;;86.10;82.47;;;;;;;;;;5072248;28;20522;-69
2020/12/10 15:01:47;;;;;;;207.67;197.53;;;;;;;;;;5060816;28;20187;-70
2020/12/10 15:04:13;;;;;;;397.33;376.43;;;;;;;;;;5040384;28;20216;-68
2020/12/10 15:06:40;;;;;;;243.60;232.13;;;;;;;;;;5059534;28;20282;-71
2020/12/10 15:09:07;;;;;;;178.13;169.60;;;;;;;;;;5059845;28;20218;-70
2020/12/10 15:11:39;;;;;;;159.77;151.97;;;;;;;;;;5059907;28;20228;-69
2020/12/10 15:14:07;;;;;;;91.80;87.63;;;;;;;;;;5043277;28;20241;-68
2020/12/10 15:16:34;;;;;;;157.50;150.40;;;;;;;;;;5061501;28;20186;-71
2020/12/10 15:19:02;;;;;;;190.33;181.27;;;;;;;;;;5062474;28;20174;-71
2020/12/10 15:21:28;;;;;;;127.10;121.47;;;;;;;;;;5065989;28;20186;-70
2020/12/10 15:24:00;;;;;;;188.43;179.73;;;;;;;;;;5055030;28;20172;-71
2020/12/10 15:26:26;;;;;;;162.20;154.33;;;;;;;;;;5040352;28;20183;-71
2020/12/10 15:28:54;;;;;;;124.03;118.53;;;;;;;;;;5057764;28;20297;-69
2020/12/10 15:31:21;;;;;;;73.30;70.17;;;;;;;;;;5060278;28;20596;-70
2020/12/10 15:33:48;;;;;;;140.33;133.47;;;;;;;;;;5060007;28;20587;-69
2020/12/10 15:36:20;;;;;;;126.53;120.83;;;;;;;;;;5061059;28;20380;-72
2020/12/10 15:38:46;;;;;;;132.63;126.50;;;;;;;;;;5061590;28;20187;-69
2020/12/10 15:41:13;;;;;;;265.13;251.90;;;;;;;;;;5044517;28;20207;-71
2020/12/10 15:43:40;;;;;;;216.97;206.50;;;;;;;;;;5061030;28;20210;-68
2020/12/10 15:46:06;;;;;;;117.80;112.07;;;;;;;;;;5062161;28;20720;-70
2020/12/10 15:48:34;;;;;;;155.57;147.83;;;;;;;;;;5054670;28;20241;-72
2020/12/10 15:51:01;;;;;;;143.20;136.57;;;;;;;;;;5054103;28;20187;-69
2020/12/10 15:53:27;;;;;;;115.83;110.63;;;;;;;;;;5061354;28;20207;-72
2020/12/10 15:55:54;;;;;;;243.10;231.00;;;;;;;;;;5059950;28;20186;-70
2020/12/10 15:58:21;;;;;;;100.80;96.20;;;;;;;;;;5059735;28;20476;-68
2020/12/10 16:00:48;;;;;;;144.37;137.80;;;;;;;;;;5058119;28;20217;-70
2020/12/10 16:03:14;;;;;;;99.90;95.40;;;;;;;;;;5060298;28;20598;-70
2020/12/10 16:05:42;;;;;;;164.57;156.60;;;;;;;;;;5059620;28;20183;-69
2020/12/10 16:08:14;;;;;;;149.63;142.90;;;;;;;;;;5058935;28;20226;-69
2020/12/10 16:11:00;;;;;;;132.13;126.40;;;;;;;;;;5057967;28;20179;-70
2020/12/10 16:13:27;;;;;;;140.20;134.10;;;;;;;;;;5057103;28;20320;-69
2020/12/10 16:15:54;;;;;;;138.27;131.73;;;;;;;;;;5057272;28;20190;-68
2020/12/10 16:18:23;;;;;;;139.30;132.63;;;;;;;;;;5052634;28;20202;-69
2020/12/10 16:20:50;;;;;;;210.73;201.00;;;;;;;;;;5057006;28;20270;-69
2020/12/10 16:23:16;;;;;;;136.17;129.57;;;;;;;;;;5053874;28;20190;-68
2020/12/10 16:25:46;;;;;;;195.90;186.53;;;;;;;;;;5053648;28;20238;-71
2020/12/10 16:28:15;;;;;;;138.60;132.07;;;;;;;;;;5057033;28;21049;-70
2020/12/10 16:30:42;;;;;;;164.40;156.90;;;;;;;;;;5057466;28;20176;-69
2020/12/10 16:33:09;;;;;;;236.73;225.77;;;;;;;;;;5058557;28;20193;-70
2020/12/10 16:35:35;;;;;;;277.67;263.63;;;;;;;;;;5057958;28;20225;-69
2020/12/10 16:38:02;;;;;;;160.97;153.17;;;;;;;;;;5058940;28;20239;-69
2020/12/10 16:40:29;;;;;;;131.83;125.53;;;;;;;;;;5052578;28;20191;-71
2020/12/10 16:42:56;;;;;;;233.20;221.77;;;;;;;;;;5056978;28;20318;-69
2020/12/10 16:45:22;;;;;;;147.40;140.70;;;;;;;;;;5056818;28;20275;-68
2020/12/10 16:47:50;;;;;;;186.93;177.60;;;;;;;;;;5058766;28;20690;-71
2020/12/10 16:50:17;;;;;;;145.87;139.40;;;;;;;;;;5058630;28;20215;-69
2020/12/10 16:52:44;;;;;;;135.17;128.73;;;;;;;;;;5058295;28;20179;-68
2020/12/10 16:55:12;;;;;;;152.50;145.63;;;;;;;;;;5054878;28;20232;-68
2020/12/10 16:57:39;;;;;;;150.17;143.00;;;;;;;;;;5058380;28;20194;-70
2020/12/10 17:00:06;;;;;;;191.73;182.63;;;;;;;;;;5058893;28;20640;-70
2020/12/10 17:02:34;;;;;;;291.03;275.97;;;;;;;;;;5040923;28;20933;-69
2020/12/10 17:05:00;;;;;;;217.40;206.77;;;;;;;;;;5030241;28;20195;-71
2020/12/10 17:07:48;;;;;;;218.93;207.87;;;;;;;;;;5056222;28;20229;-70
2020/12/10 17:10:15;;;;;;;158.80;150.90;;;;;;;;;;5057507;28;20194;-68
2020/12/10 17:12:44;;;;;;;178.53;169.77;;;;;;;;;;5057838;28;20280;-70
2020/12/10 17:15:10;;;;;;;123.37;117.67;;;;;;;;;;5058434;28;20181;-67
2020/12/10 17:17:37;;;;;;;217.73;206.97;;;;;;;;;;5056999;28;20286;-68
2020/12/10 17:20:04;;;;;;;186.00;176.90;;;;;;;;;;5057153;28;20171;-70
2020/12/10 17:22:30;;;;;;;129.47;123.70;;;;;;;;;;5047012;28;20657;-69
2020/12/10 17:24:57;;;;;;;165.03;157.20;;;;;;;;;;5054643;28;20635;-69
2020/12/10 17:27:28;;;;;;;184.03;175.00;;;;;;;;;;5057936;28;20180;-68
2020/12/10 17:29:56;;;;;;;149.20;142.80;;;;;;;;;;5057385;28;20233;-67
2020/12/10 17:32:23;;;;;;;271.33;257.10;;;;;;;;;;5057085;28;20940;-67
2020/12/10 17:34:49;;;;;;;159.67;152.30;;;;;;;;;;5054194;28;20175;-70
2020/12/10 17:37:16;;;;;;;174.60;166.97;;;;;;;;;;5056342;28;20179;-71
2020/12/10 17:39:43;;;;;;;174.63;167.00;;;;;;;;;;5056237;28;20179;-71
2020/12/10 17:42:13;;;;;;;211.63;201.07;;;;;;;;;;5060782;28;20194;-68
2020/12/10 17:44:39;;;;;;;206.77;196.70;;;;;;;;;;5052814;28;20175;-71
2020/12/10 17:47:08;;;;;;;199.33;189.80;;;;;;;;;;5058259;28;20186;-69
2020/12/10 17:49:35;;;;;;;281.23;266.83;;;;;;;;;;5056447;28;20233;-71
2020/12/10 17:52:02;;;;;;;318.60;301.23;;;;;;;;;;5053211;28;20536;-71
2020/12/10 17:54:31;;;;;;;404.47;380.57;;;;;;;;;;5054144;28;20187;-72
2020/12/10 17:56:58;;;;;;;362.70;341.43;;;;;;;;;;5048400;28;20833;-72
2020/12/10 17:59:25;;;;;;;203.40;193.70;;;;;;;;;;5048469;28;20197;-71
2020/12/10 18:01:52;;;;;;;293.17;277.87;;;;;;;;;;5047113;28;20543;-73
2020/12/10 18:04:19;;;;;;;282.33;266.87;;;;;;;;;;5051455;28;20179;-72
2020/12/10 18:06:47;;;;;;;255.40;242.97;;;;;;;;;;5055481;28;20270;-71
2020/12/10 18:09:13;;;;;;;256.47;244.40;;;;;;;;;;5055639;28;20226;-73
2020/12/10 18:11:40;;;;;;;346.30;326.63;;;;;;;;;;5050619;28;20556;-70
2020/12/10 18:14:07;;;;;;;293.80;279.33;;;;;;;;;;5056602;28;20190;-70
2020/12/10 18:16:34;;;;;;;258.97;246.27;;;;;;;;;;5036438;28;20179;-71
2020/12/10 18:19:03;;;;;;;265.13;252.50;;;;;;;;;;5053739;28;20186;-71
2020/12/10 18:21:30;;;;;;;341.77;325.63;;;;;;;;;;5052102;28;20580;-68
2020/12/10 18:23:58;;;;;;;240.70;229.50;;;;;;;;;;5055132;28;20214;-69
2020/12/10 18:26:25;;;;;;;342.10;322.67;;;;;;;;;;5056697;28;20240;-69
2020/12/10 18:28:52;;;;;;;460.10;431.67;;;;;;;;;;5056106;28;20220;-69
2020/12/10 18:31:19;;;;;;;357.93;337.53;;;;;;;;;;5057856;28;20185;-68
2020/12/10 18:33:45;;;;;;;455.23;428.20;;;;;;;;;;5057964;28;20179;-69
2020/12/10 18:36:15;;;;;;;456.43;429.27;;;;;;;;;;5053945;28;20692;-68
2020/12/10 18:38:42;;;;;;;437.37;411.17;;;;;;;;;;5055354;28;20187;-67
2020/12/10 18:41:13;;;;;;;278.53;263.10;;;;;;;;;;5060839;28;20191;-68
2020/12/10 18:43:40;;;;;;;319.50;301.00;;;;;;;;;;5056332;28;20184;-69
2020/12/10 18:46:06;;;;;;;413.77;389.60;;;;;;;;;;5057643;28;20235;-69
2020/12/10 18:48:33;;;;;;;434.93;407.90;;;;;;;;;;5055416;28;20575;-69
2020/12/10 18:51:01;;;;;;;512.37;479.17;;;;;;;;;;5058050;28;20188;-68
2020/12/10 18:53:28;;;;;;;268.27;255.20;;;;;;;;;;5056829;28;20179;-68
2020/12/10 18:55:54;;;;;;;466.83;437.83;;;;;;;;;;5054176;28;20175;-69
2020/12/10 18:58:21;;;;;;;387.70;366.20;;;;;;;;;;5053570;28;20222;-68
2020/12/10 19:00:48;;;;;;;426.37;399.73;;;;;;;;;;5059933;28;20230;-68
2020/12/10 19:03:14;;;;;;;463.30;434.13;;;;;;;;;;5050239;28;20183;-69
2020/12/10 19:05:41;;;;;;;434.33;406.87;;;;;;;;;;5060626;28;20172;-68
2020/12/10 19:08:08;;;;;;;453.80;424.90;;;;;;;;;;5060006;28;20339;-68
2020/12/10 19:10:35;;;;;;;440.80;412.33;;;;;;;;;;5054858;28;20254;-68
2020/12/10 19:13:02;;;;;;;437.83;409.87;;;;;;;;;;5048859;28;20224;-68
2020/12/10 19:15:29;;;;;;;303.17;287.47;;;;;;;;;;5058761;28;20891;-68
2020/12/10 19:17:56;;;;;;;318.20;300.70;;;;;;;;;;5057058;28;20183;-68
2020/12/10 19:20:23;;;;;;;189.33;179.87;;;;;;;;;;5053973;28;20179;-70
2020/12/10 19:22:50;;;;;;;341.27;321.60;;;;;;;;;;5055593;28;20179;-69
2020/12/10 19:25:16;;;;;;;334.83;314.10;;;;;;;;;;5061017;28;20267;-70
2020/12/10 19:27:45;;;;;;;216.27;205.13;;;;;;;;;;5059634;28;20242;-69
2020/12/10 19:30:12;;;;;;;310.73;295.03;;;;;;;;;;5058755;28;20231;-69
2020/12/10 19:32:39;;;;;;;338.47;319.10;;;;;;;;;;5056499;28;20650;-68
2020/12/10 19:35:07;;;;;;;355.33;336.03;;;;;;;;;;5049607;28;20171;-68
2020/12/10 19:37:36;;;;;;;338.43;319.10;;;;;;;;;;5056677;28;20265;-69
2020/12/10 19:40:07;;;;;;;365.53;345.40;;;;;;;;;;5060314;28;20669;-69
2020/12/10 19:42:34;;;;;;;353.50;333.73;;;;;;;;;;5055734;28;20179;-69
2020/12/10 19:45:01;;;;;;;381.67;360.47;;;;;;;;;;5058186;28;20641;-67
2020/12/10 19:47:28;;;;;;;220.57;210.17;;;;;;;;;;5059076;28;20305;-67
2020/12/10 19:49:55;;;;;;;484.10;454.47;;;;;;;;;;5057741;28;20194;-69
2020/12/10 19:52:21;;;;;;;422.00;397.83;;;;;;;;;;5059077;28;20572;-69
2020/12/10 19:54:48;;;;;;;510.77;477.80;;;;;;;;;;5057444;28;20183;-69
2020/12/10 19:57:15;;;;;;;526.57;492.47;;;;;;;;;;5051899;28;20531;-70
2020/12/10 19:59:42;;;;;;;399.50;376.03;;;;;;;;;;5050343;28;20276;-69
2020/12/10 20:02:09;;;;;;;428.20;404.00;;;;;;;;;;5058002;28;20176;-69
2020/12/10 20:04:36;;;;;;;441.70;412.93;;;;;;;;;;5054049;28;20922;-66
2020/12/10 20:07:03;;;;;;;331.00;314.57;;;;;;;;;;5053111;28;20186;-69
2020/12/10 20:09:30;;;;;;;443.53;415.40;;;;;;;;;;5055432;28;20214;-69
2020/12/10 20:11:57;;;;;;;376.10;355.77;;;;;;;;;;5057656;28;20210;-69
2020/12/10 20:14:23;;;;;;;449.83;420.53;;;;;;;;;;5060286;28;20387;-66
2020/12/10 20:16:50;;;;;;;446.53;419.00;;;;;;;;;;5058329;28;20552;-66
2020/12/10 20:19:17;;;;;;;494.80;461.43;;;;;;;;;;5056888;28;20186;-67
2020/12/10 20:21:46;;;;;;;417.20;392.00;;;;;;;;;;5056383;28;20186;-65
2020/12/10 20:24:13;;;;;;;400.20;374.70;;;;;;;;;;5057802;28;20183;-67
2020/12/10 20:26:43;;;;;;;523.07;486.33;;;;;;;;;;5059352;28;20244;-67
2020/12/10 20:29:15;;;;;;;464.33;435.63;;;;;;;;;;5059652;28;20257;-67
2020/12/10 20:31:44;;;;;;;392.13;370.13;;;;;;;;;;5059943;28;20191;-66
2020/12/10 20:34:14;;;;;;;412.93;385.20;;;;;;;;;;5063699;28;20191;-67
2020/12/10 20:36:44;;;;;;;468.33;436.77;;;;;;;;;;5059058;28;20200;-67
2020/12/10 20:39:16;;;;;;;330.77;313.30;;;;;;;;;;5058916;28;20280;-66
2020/12/10 20:41:47;;;;;;;486.57;454.43;;;;;;;;;;5060650;28;20199;-66
2020/12/10 20:44:16;;;;;;;494.73;461.60;;;;;;;;;;5060483;28;20193;-65
2020/12/10 20:46:45;;;;;;;615.90;573.80;;;;;;;;;;5059882;28;20191;-66
2020/12/10 20:49:14;;;;;;;555.73;519.03;;;;;;;;;;5060807;28;20238;-67
2020/12/10 20:51:41;;;;;;;525.60;489.80;;;;;;;;;;5060325;28;20675;-66
2020/12/10 20:54:08;;;;;;;654.23;608.63;;;;;;;;;;5060225;28;20191;-66
2020/12/10 20:56:35;;;;;;;449.70;421.80;;;;;;;;;;5056909;28;20236;-66
2020/12/10 20:59:04;;;;;;;557.50;520.30;;;;;;;;;;5060775;28;20190;-66
2020/12/10 21:01:31;;;;;;;619.00;575.47;;;;;;;;;;5061129;28;20189;-67
2020/12/10 21:03:58;;;;;;;719.83;666.80;;;;;;;;;;5061907;28;20372;-67
2020/12/10 21:06:24;;;;;;;711.93;660.57;;;;;;;;;;5061132;28;20187;-66
2020/12/10 21:08:51;;;;;;;756.43;700.50;;;;;;;;;;5060134;28;20233;-66
2020/12/10 21:11:21;;;;;;;809.23;743.00;;;;;;;;;;5060906;28;20543;-67
2020/12/10 21:13:48;;;;;;;696.73;645.10;;;;;;;;;;5060717;28;20243;-66
2020/12/10 21:16:15;;;;;;;746.43;689.70;;;;;;;;;;5064069;28;20266;-66
2020/12/10 21:18:42;;;;;;;545.60;511.00;;;;;;;;;;5060196;28;20186;-66
2020/12/10 21:21:12;;;;;;;649.03;602.03;;;;;;;;;;5059286;28;20190;-66
2020/12/10 21:23:39;;;;;;;622.93;584.07;;;;;;;;;;5059726;28;20297;-66
2020/12/10 21:26:17;;;;;;;691.37;643.37;;;;;;;;;;5059971;28;20217;-66
2020/12/10 21:28:44;;;;;;;691.73;647.50;;;;;;;;;;5060061;28;20239;-67
2020/12/10 21:31:11;;;;;;;843.47;778.33;;;;;;;;;;5059418;28;20260;-65
2020/12/10 21:33:42;;;;;;;819.73;759.50;;;;;;;;;;5059215;28;20269;-66
2020/12/10 21:36:09;;;;;;;672.97;624.60;;;;;;;;;;5060067;28;20274;-65
2020/12/10 21:38:36;;;;;;;899.53;821.60;;;;;;;;;;5059151;28;20171;-65
2020/12/10 21:41:03;;;;;;;876.50;800.17;;;;;;;;;;5060191;28;20191;-66
2020/12/10 21:43:30;;;;;;;836.83;760.83;;;;;;;;;;5060210;28;20181;-64
2020/12/10 21:45:56;;;;;;;702.80;646.97;;;;;;;;;;5059753;28;20185;-66
2020/12/10 21:48:23;;;;;;;736.30;674.30;;;;;;;;;;5060030;28;20645;-64
2020/12/10 21:50:50;;;;;;;796.07;727.70;;;;;;;;;;5058960;28;20183;-65
2020/12/10 21:53:16;;;;;;;675.37;621.57;;;;;;;;;;5059925;28;20259;-65
2020/12/10 21:55:43;;;;;;;579.10;538.63;;;;;;;;;;5063277;28;20573;-66
2020/12/10 21:58:10;;;;;;;798.53;730.83;;;;;;;;;;5059564;28;20765;-65
2020/12/10 22:00:36;;;;;;;625.07;575.60;;;;;;;;;;5059626;28;20291;-66
2020/12/10 22:03:03;;;;;;;770.37;700.53;;;;;;;;;;5041815;28;20498;-66
2020/12/10 22:05:30;;;;;;;806.70;736.27;;;;;;;;;;5067509;28;20189;-65
2020/12/10 22:07:57;;;;;;;762.03;697.53;;;;;;;;;;5059717;28;20637;-66
2020/12/10 22:10:24;;;;;;;875.97;794.13;;;;;;;;;;5031175;28;20234;-66
2020/12/10 22:12:54;;;;;;;739.63;676.00;;;;;;;;;;5063487;28;20744;-66
2020/12/10 22:15:20;;;;;;;735.03;678.83;;;;;;;;;;5063177;28;20201;-65
2020/12/10 22:17:47;;;;;;;710.13;653.07;;;;;;;;;;5063656;28;20667;-66
2020/12/10 22:20:14;;;;;;;700.97;637.33;;;;;;;;;;5065297;28;20423;-65
2020/12/10 22:22:41;;;;;;;617.33;564.47;;;;;;;;;;5063107;28;20193;-65
2020/12/10 22:25:07;;;;;;;661.23;610.57;;;;;;;;;;5064014;28;20189;-65
2020/12/10 22:27:34;;;;;;;619.20;572.27;;;;;;;;;;5063230;28;20191;-66
2020/12/10 22:30:01;;;;;;;644.77;593.27;;;;;;;;;;5063327;28;20225;-66
2020/12/10 22:32:27;;;;;;;581.30;538.43;;;;;;;;;;5066111;28;20901;-66
2020/12/10 22:34:54;;;;;;;856.17;773.30;;;;;;;;;;5063836;28;20283;-66
2020/12/10 22:37:21;;;;;;;611.60;565.07;;;;;;;;;;5062973;28;20193;-66
2020/12/10 22:39:47;;;;;;;619.43;575.00;;;;;;;;;;5062886;28;20545;-66
2020/12/10 22:42:14;;;;;;;658.73;610.60;;;;;;;;;;5063227;28;20353;-66
2020/12/10 22:44:41;;;;;;;697.07;634.63;;;;;;;;;;5063087;28;20277;-65
2020/12/10 22:47:07;;;;;;;801.50;733.10;;;;;;;;;;5056878;28;20190;-66
2020/12/10 22:49:34;;;;;;;678.60;628.77;;;;;;;;;;5049701;28;20249;-66
2020/12/10 22:52:01;;;;;;;710.93;657.10;;;;;;;;;;5062202;28;20277;-66
2020/12/10 22:54:28;;;;;;;832.90;753.50;;;;;;;;;;5061950;28;20275;-66
2020/12/10 22:56:56;;;;;;;827.17;750.77;;;;;;;;;;5062083;28;20198;-67
2020/12/10 22:59:22;;;;;;;867.37;779.63;;;;;;;;;;5061977;28;20238;-67
2020/12/10 23:01:50;;;;;;;902.87;810.40;;;;;;;;;;5064622;28;20590;-65
2020/12/10 23:04:17;;;;;;;923.20;827.97;;;;;;;;;;5061759;28;20213;-66
2020/12/10 23:06:43;;;;;;;807.40;740.23;;;;;;;;;;5062329;28;20660;-66
2020/12/10 23:09:13;;;;;;;737.20;677.10;;;;;;;;;;5061661;28;20226;-66
2020/12/10 23:11:40;;;;;;;861.33;782.37;;;;;;;;;;5061680;28;20660;-67
2020/12/10 23:14:06;;;;;;;962.80;858.00;;;;;;;;;;5061543;28;20190;-66
2020/12/10 23:16:33;;;;;;;753.37;699.27;;;;;;;;;;5061896;28;20198;-66
2020/12/10 23:19:00;;;;;;;915.90;827.27;;;;;;;;;;5036353;28;20182;-67
2020/12/10 23:21:29;;;;;;;800.13;732.13;;;;;;;;;;5061663;28;20198;-66
2020/12/10 23:23:55;;;;;;;989.63;883.30;;;;;;;;;;5061603;28;20709;-66
2020/12/10 23:26:22;;;;;;;1016.17;903.83;;;;;;;;;;5061673;28;20194;-66
2020/12/10 23:28:48;;;;;;;800.80;735.27;;;;;;;;;;5062468;28;20232;-66
2020/12/10 23:31:15;;;;;;;844.77;763.27;;;;;;;;;;5061743;28;20740;-66
2020/12/10 23:33:42;;;;;;;874.77;786.13;;;;;;;;;;5062121;28;20190;-67
2020/12/10 23:36:11;;;;;;;898.00;805.77;;;;;;;;;;5061893;28;20195;-66
2020/12/10 23:38:37;;;;;;;875.63;787.23;;;;;;;;;;5061850;28;20303;-66
2020/12/10 23:41:04;;;;;;;664.97;604.77;;;;;;;;;;5063279;28;20187;-66
2020/12/10 23:43:31;;;;;;;766.73;698.87;;;;;;;;;;5062853;28;20187;-66
2020/12/10 23:45:57;;;;;;;777.03;709.53;;;;;;;;;;5062035;28;20551;-67
2020/12/10 23:48:29;;;;;;;803.27;733.83;;;;;;;;;;5061742;28;20375;-65
2020/12/10 23:50:56;;;;;;;580.17;539.00;;;;;;;;;;5061921;28;20289;-66
2020/12/10 23:53:22;;;;;;;866.00;792.43;;;;;;;;;;5061203;28;20190;-66
2020/12/10 23:55:50;;;;;;;809.57;735.97;;;;;;;;;;5061267;28;20194;-66
2020/12/10 23:58:19;;;;;;;681.73;631.90;;;;;;;;;;5061493;28;20225;-66
